sensor_id;sensor_type;location;lat;lon;timestamp;P1;durP1;ratioP1;P2;durP2;ratioP2
12480;SDS011;6305;48.398;11.762;2023-08-31T00:00:08;16.50;;;13.18;;
12480;SDS011;6305;48.398;11.762;2023-08-31T00:02:38;20.10;;;13.55;;
12480;SDS011;6305;48.398;11.762;2023-08-31T00:05:05;19.48;;;13.43;;
12480;SDS011;6305;48.398;11.762;2023-08-31T00:07:33;19.35;;;13.65;;
12480;SDS011;6305;48.398;11.762;2023-08-31T00:10:00;17.98;;;12.88;;
12480;SDS011;6305;48.398;11.762;2023-08-31T00:12:34;16.08;;;12.77;;
12480;SDS011;6305;48.398;11.762;2023-08-31T00:15:02;18.38;;;12.77;;
12480;SDS011;6305;48.398;11.762;2023-08-31T00:17:32;17.55;;;12.80;;
12480;SDS011;6305;48.398;11.762;2023-08-31T00:19:58;17.38;;;11.63;;
12480;SDS011;6305;48.398;11.762;2023-08-31T00:22:25;18.33;;;13.57;;
12480;SDS011;6305;48.398;11.762;2023-08-31T00:24:53;18.30;;;12.68;;
12480;SDS011;6305;48.398;11.762;2023-08-31T00:27:20;17.52;;;12.38;;
12480;SDS011;6305;48.398;11.762;2023-08-31T00:29:47;18.58;;;13.25;;
12480;SDS011;6305;48.398;11.762;2023-08-31T00:32:16;18.42;;;12.80;;
12480;SDS011;6305;48.398;11.762;2023-08-31T00:34:45;19.60;;;13.65;;
12480;SDS011;6305;48.398;11.762;2023-08-31T00:37:12;18.92;;;13.02;;
12480;SDS011;6305;48.398;11.762;2023-08-31T00:39:39;20.35;;;14.20;;
12480;SDS011;6305;48.398;11.762;2023-08-31T00:42:07;23.05;;;14.18;;
12480;SDS011;6305;48.398;11.762;2023-08-31T00:44:34;20.70;;;14.00;;
12480;SDS011;6305;48.398;11.762;2023-08-31T00:47:01;20.60;;;13.90;;
12480;SDS011;6305;48.398;11.762;2023-08-31T00:49:28;24.80;;;15.25;;
12480;SDS011;6305;48.398;11.762;2023-08-31T00:51:57;24.02;;;15.30;;
12480;SDS011;6305;48.398;11.762;2023-08-31T00:54:24;24.48;;;15.45;;
12480;SDS011;6305;48.398;11.762;2023-08-31T00:56:53;23.85;;;15.25;;
12480;SDS011;6305;48.398;11.762;2023-08-31T00:59:22;25.27;;;15.30;;
12480;SDS011;6305;48.398;11.762;2023-08-31T01:01:50;26.33;;;15.45;;
12480;SDS011;6305;48.398;11.762;2023-08-31T01:04:25;24.75;;;14.38;;
12480;SDS011;6305;48.398;11.762;2023-08-31T01:07:00;24.65;;;15.45;;
12480;SDS011;6305;48.398;11.762;2023-08-31T01:09:39;22.13;;;14.48;;
12480;SDS011;6305;48.398;11.762;2023-08-31T01:12:11;22.48;;;13.98;;
12480;SDS011;6305;48.398;11.762;2023-08-31T01:14:44;24.63;;;15.73;;
12480;SDS011;6305;48.398;11.762;2023-08-31T01:17:17;22.88;;;13.95;;
12480;SDS011;6305;48.398;11.762;2023-08-31T01:19:47;23.40;;;15.07;;
12480;SDS011;6305;48.398;11.762;2023-08-31T01:22:18;21.48;;;14.55;;
12480;SDS011;6305;48.398;11.762;2023-08-31T01:24:55;20.15;;;14.13;;
12480;SDS011;6305;48.398;11.762;2023-08-31T01:27:22;20.85;;;14.25;;
12480;SDS011;6305;48.398;11.762;2023-08-31T01:29:50;22.75;;;14.50;;
12480;SDS011;6305;48.398;11.762;2023-08-31T01:32:20;22.55;;;13.98;;
12480;SDS011;6305;48.398;11.762;2023-08-31T01:34:47;21.65;;;13.18;;
12480;SDS011;6305;48.398;11.762;2023-08-31T01:37:16;21.85;;;13.65;;
12480;SDS011;6305;48.398;11.762;2023-08-31T01:39:49;21.02;;;13.23;;
12480;SDS011;6305;48.398;11.762;2023-08-31T01:42:21;22.55;;;14.23;;
12480;SDS011;6305;48.398;11.762;2023-08-31T01:44:50;21.48;;;13.63;;
12480;SDS011;6305;48.398;11.762;2023-08-31T01:47:18;25.35;;;14.95;;
12480;SDS011;6305;48.398;11.762;2023-08-31T01:49:46;23.48;;;14.57;;
12480;SDS011;6305;48.398;11.762;2023-08-31T01:52:13;24.10;;;13.90;;
12480;SDS011;6305;48.398;11.762;2023-08-31T01:54:40;22.25;;;14.68;;
12480;SDS011;6305;48.398;11.762;2023-08-31T01:57:07;23.67;;;15.38;;
12480;SDS011;6305;48.398;11.762;2023-08-31T01:59:47;22.42;;;14.60;;
12480;SDS011;6305;48.398;11.762;2023-08-31T02:02:14;23.63;;;15.10;;
12480;SDS011;6305;48.398;11.762;2023-08-31T02:04:41;25.13;;;15.27;;
12480;SDS011;6305;48.398;11.762;2023-08-31T02:07:09;26.08;;;16.10;;
12480;SDS011;6305;48.398;11.762;2023-08-31T02:09:36;23.27;;;15.52;;
12480;SDS011;6305;48.398;11.762;2023-08-31T02:12:03;25.40;;;15.40;;
12480;SDS011;6305;48.398;11.762;2023-08-31T02:14:31;23.70;;;14.88;;
12480;SDS011;6305;48.398;11.762;2023-08-31T02:16:59;20.25;;;14.43;;
12480;SDS011;6305;48.398;11.762;2023-08-31T02:19:26;21.67;;;14.43;;
12480;SDS011;6305;48.398;11.762;2023-08-31T02:21:53;23.08;;;15.02;;
12480;SDS011;6305;48.398;11.762;2023-08-31T02:24:20;24.40;;;15.85;;
12480;SDS011;6305;48.398;11.762;2023-08-31T02:26:47;21.55;;;14.82;;
12480;SDS011;6305;48.398;11.762;2023-08-31T02:29:15;22.52;;;15.43;;
12480;SDS011;6305;48.398;11.762;2023-08-31T02:31:41;21.45;;;14.77;;
12480;SDS011;6305;48.398;11.762;2023-08-31T02:34:12;20.58;;;13.98;;
12480;SDS011;6305;48.398;11.762;2023-08-31T02:36:39;21.83;;;14.23;;
12480;SDS011;6305;48.398;11.762;2023-08-31T02:39:06;22.20;;;14.65;;
12480;SDS011;6305;48.398;11.762;2023-08-31T02:41:35;20.02;;;14.27;;
12480;SDS011;6305;48.398;11.762;2023-08-31T02:44:03;22.25;;;13.77;;
12480;SDS011;6305;48.398;11.762;2023-08-31T02:46:30;18.13;;;13.27;;
12480;SDS011;6305;48.398;11.762;2023-08-31T02:48:57;21.13;;;14.40;;
12480;SDS011;6305;48.398;11.762;2023-08-31T02:51:26;19.83;;;13.60;;
12480;SDS011;6305;48.398;11.762;2023-08-31T02:53:52;20.70;;;13.82;;
12480;SDS011;6305;48.398;11.762;2023-08-31T02:56:20;18.75;;;13.32;;
12480;SDS011;6305;48.398;11.762;2023-08-31T02:58:47;18.15;;;13.48;;
12480;SDS011;6305;48.398;11.762;2023-08-31T03:01:14;18.70;;;13.70;;
12480;SDS011;6305;48.398;11.762;2023-08-31T03:03:45;19.73;;;13.95;;
12480;SDS011;6305;48.398;11.762;2023-08-31T03:06:12;20.95;;;14.25;;
12480;SDS011;6305;48.398;11.762;2023-08-31T03:08:41;20.92;;;14.68;;
12480;SDS011;6305;48.398;11.762;2023-08-31T03:11:08;22.73;;;14.90;;
12480;SDS011;6305;48.398;11.762;2023-08-31T03:13:35;20.98;;;13.43;;
12480;SDS011;6305;48.398;11.762;2023-08-31T03:16:03;19.42;;;13.40;;
12480;SDS011;6305;48.398;11.762;2023-08-31T03:18:30;18.75;;;12.77;;
12480;SDS011;6305;48.398;11.762;2023-08-31T03:20:57;18.40;;;13.55;;
12480;SDS011;6305;48.398;11.762;2023-08-31T03:23:24;19.70;;;13.70;;
12480;SDS011;6305;48.398;11.762;2023-08-31T03:25:52;20.77;;;13.65;;
12480;SDS011;6305;48.398;11.762;2023-08-31T03:28:20;17.50;;;12.82;;
12480;SDS011;6305;48.398;11.762;2023-08-31T03:30:53;18.60;;;13.20;;
12480;SDS011;6305;48.398;11.762;2023-08-31T03:33:21;22.20;;;13.65;;
12480;SDS011;6305;48.398;11.762;2023-08-31T03:35:49;22.05;;;14.27;;
12480;SDS011;6305;48.398;11.762;2023-08-31T03:38:16;19.92;;;14.05;;
12480;SDS011;6305;48.398;11.762;2023-08-31T03:40:53;19.85;;;13.98;;
12480;SDS011;6305;48.398;11.762;2023-08-31T03:43:21;18.80;;;13.90;;
12480;SDS011;6305;48.398;11.762;2023-08-31T03:45:53;21.75;;;14.13;;
12480;SDS011;6305;48.398;11.762;2023-08-31T03:48:20;21.00;;;14.55;;
12480;SDS011;6305;48.398;11.762;2023-08-31T03:50:48;23.20;;;15.50;;
12480;SDS011;6305;48.398;11.762;2023-08-31T03:53:16;27.08;;;16.15;;
12480;SDS011;6305;48.398;11.762;2023-08-31T03:55:43;21.88;;;14.95;;
12480;SDS011;6305;48.398;11.762;2023-08-31T03:58:14;21.90;;;14.23;;
12480;SDS011;6305;48.398;11.762;2023-08-31T04:00:48;20.50;;;14.68;;
12480;SDS011;6305;48.398;11.762;2023-08-31T04:03:17;20.80;;;13.35;;
12480;SDS011;6305;48.398;11.762;2023-08-31T04:05:46;19.95;;;14.13;;
12480;SDS011;6305;48.398;11.762;2023-08-31T04:08:13;19.65;;;13.80;;
12480;SDS011;6305;48.398;11.762;2023-08-31T04:10:39;18.38;;;13.75;;
12480;SDS011;6305;48.398;11.762;2023-08-31T04:13:06;18.38;;;13.15;;
12480;SDS011;6305;48.398;11.762;2023-08-31T04:15:35;20.17;;;13.38;;
12480;SDS011;6305;48.398;11.762;2023-08-31T04:18:02;17.95;;;12.80;;
12480;SDS011;6305;48.398;11.762;2023-08-31T04:20:30;17.67;;;12.60;;
12480;SDS011;6305;48.398;11.762;2023-08-31T04:22:59;16.85;;;11.65;;
12480;SDS011;6305;48.398;11.762;2023-08-31T04:25:28;17.33;;;12.07;;
12480;SDS011;6305;48.398;11.762;2023-08-31T04:27:56;16.90;;;11.93;;
12480;SDS011;6305;48.398;11.762;2023-08-31T04:30:22;18.13;;;11.93;;
12480;SDS011;6305;48.398;11.762;2023-08-31T04:32:51;15.73;;;11.32;;
12480;SDS011;6305;48.398;11.762;2023-08-31T04:35:18;18.35;;;11.88;;
12480;SDS011;6305;48.398;11.762;2023-08-31T04:37:46;18.85;;;12.77;;
12480;SDS011;6305;48.398;11.762;2023-08-31T04:40:13;17.20;;;11.65;;
12480;SDS011;6305;48.398;11.762;2023-08-31T04:42:40;16.17;;;11.93;;
12480;SDS011;6305;48.398;11.762;2023-08-31T04:45:07;18.73;;;12.30;;
12480;SDS011;6305;48.398;11.762;2023-08-31T04:47:35;17.92;;;12.15;;
12480;SDS011;6305;48.398;11.762;2023-08-31T04:50:04;15.80;;;12.10;;
12480;SDS011;6305;48.398;11.762;2023-08-31T04:52:32;17.55;;;12.93;;
12480;SDS011;6305;48.398;11.762;2023-08-31T04:54:59;18.83;;;12.98;;
12480;SDS011;6305;48.398;11.762;2023-08-31T04:57:26;20.02;;;13.68;;
12480;SDS011;6305;48.398;11.762;2023-08-31T04:59:53;19.55;;;13.15;;
12480;SDS011;6305;48.398;11.762;2023-08-31T05:02:20;19.70;;;13.85;;
12480;SDS011;6305;48.398;11.762;2023-08-31T05:04:47;20.63;;;14.73;;
12480;SDS011;6305;48.398;11.762;2023-08-31T05:07:16;18.73;;;14.38;;
12480;SDS011;6305;48.398;11.762;2023-08-31T05:09:42;24.50;;;14.75;;
12480;SDS011;6305;48.398;11.762;2023-08-31T05:12:09;20.58;;;14.27;;
12480;SDS011;6305;48.398;11.762;2023-08-31T05:14:36;20.98;;;14.40;;
12480;SDS011;6305;48.398;11.762;2023-08-31T05:17:05;18.83;;;13.70;;
12480;SDS011;6305;48.398;11.762;2023-08-31T05:19:32;15.75;;;12.82;;
12480;SDS011;6305;48.398;11.762;2023-08-31T05:21:59;18.92;;;13.13;;
12480;SDS011;6305;48.398;11.762;2023-08-31T05:24:28;17.70;;;13.00;;
12480;SDS011;6305;48.398;11.762;2023-08-31T05:26:55;16.88;;;12.77;;
12480;SDS011;6305;48.398;11.762;2023-08-31T05:29:22;19.55;;;12.95;;
12480;SDS011;6305;48.398;11.762;2023-08-31T05:31:51;18.02;;;12.45;;
12480;SDS011;6305;48.398;11.762;2023-08-31T05:34:20;16.15;;;12.60;;
12480;SDS011;6305;48.398;11.762;2023-08-31T05:36:47;16.75;;;12.95;;
12480;SDS011;6305;48.398;11.762;2023-08-31T05:39:14;17.73;;;12.48;;
12480;SDS011;6305;48.398;11.762;2023-08-31T05:41:43;15.65;;;12.52;;
12480;SDS011;6305;48.398;11.762;2023-08-31T05:44:10;13.07;;;11.15;;
12480;SDS011;6305;48.398;11.762;2023-08-31T05:46:37;12.70;;;10.52;;
12480;SDS011;6305;48.398;11.762;2023-08-31T05:49:05;9.95;;;8.95;;
12480;SDS011;6305;48.398;11.762;2023-08-31T05:51:33;11.65;;;9.40;;
12480;SDS011;6305;48.398;11.762;2023-08-31T05:54:00;11.32;;;9.02;;
12480;SDS011;6305;48.398;11.762;2023-08-31T05:56:28;10.82;;;8.77;;
12480;SDS011;6305;48.398;11.762;2023-08-31T05:58:56;9.60;;;8.48;;
12480;SDS011;6305;48.398;11.762;2023-08-31T06:01:23;8.52;;;7.28;;
12480;SDS011;6305;48.398;11.762;2023-08-31T06:03:50;7.72;;;6.82;;
12480;SDS011;6305;48.398;11.762;2023-08-31T06:06:17;7.70;;;7.00;;
12480;SDS011;6305;48.398;11.762;2023-08-31T06:08:44;7.88;;;7.07;;
12480;SDS011;6305;48.398;11.762;2023-08-31T06:11:11;8.23;;;6.97;;
12480;SDS011;6305;48.398;11.762;2023-08-31T06:13:38;6.68;;;5.80;;
12480;SDS011;6305;48.398;11.762;2023-08-31T06:16:07;6.88;;;5.75;;
12480;SDS011;6305;48.398;11.762;2023-08-31T06:18:34;6.72;;;6.13;;
12480;SDS011;6305;48.398;11.762;2023-08-31T06:21:01;5.90;;;5.30;;
12480;SDS011;6305;48.398;11.762;2023-08-31T06:23:28;5.78;;;5.20;;
12480;SDS011;6305;48.398;11.762;2023-08-31T06:25:55;6.40;;;5.28;;
12480;SDS011;6305;48.398;11.762;2023-08-31T06:28:22;5.70;;;5.20;;
12480;SDS011;6305;48.398;11.762;2023-08-31T06:30:49;5.97;;;5.38;;
12480;SDS011;6305;48.398;11.762;2023-08-31T06:33:18;5.90;;;4.72;;
12480;SDS011;6305;48.398;11.762;2023-08-31T06:35:45;4.60;;;4.20;;
12480;SDS011;6305;48.398;11.762;2023-08-31T06:38:13;7.10;;;4.43;;
12480;SDS011;6305;48.398;11.762;2023-08-31T06:40:41;4.05;;;3.75;;
12480;SDS011;6305;48.398;11.762;2023-08-31T06:43:08;4.32;;;3.92;;
12480;SDS011;6305;48.398;11.762;2023-08-31T06:45:35;5.18;;;3.70;;
12480;SDS011;6305;48.398;11.762;2023-08-31T06:48:02;4.45;;;3.72;;
12480;SDS011;6305;48.398;11.762;2023-08-31T06:50:32;4.43;;;3.88;;
12480;SDS011;6305;48.398;11.762;2023-08-31T06:53:00;3.92;;;3.28;;
12480;SDS011;6305;48.398;11.762;2023-08-31T06:55:28;3.65;;;3.35;;
12480;SDS011;6305;48.398;11.762;2023-08-31T06:57:57;3.60;;;3.30;;
12480;SDS011;6305;48.398;11.762;2023-08-31T07:00:24;5.57;;;3.75;;
12480;SDS011;6305;48.398;11.762;2023-08-31T07:02:51;4.55;;;3.35;;
12480;SDS011;6305;48.398;11.762;2023-08-31T07:05:19;4.38;;;3.55;;
12480;SDS011;6305;48.398;11.762;2023-08-31T07:07:53;3.42;;;3.13;;
12480;SDS011;6305;48.398;11.762;2023-08-31T07:10:20;3.83;;;2.88;;
12480;SDS011;6305;48.398;11.762;2023-08-31T07:12:47;3.30;;;2.40;;
12480;SDS011;6305;48.398;11.762;2023-08-31T07:15:15;4.25;;;2.67;;
12480;SDS011;6305;48.398;11.762;2023-08-31T07:17:42;2.85;;;2.63;;
12480;SDS011;6305;48.398;11.762;2023-08-31T07:20:10;5.13;;;2.33;;
12480;SDS011;6305;48.398;11.762;2023-08-31T07:22:37;4.03;;;2.85;;
12480;SDS011;6305;48.398;11.762;2023-08-31T07:25:07;2.92;;;2.50;;
12480;SDS011;6305;48.398;11.762;2023-08-31T07:27:34;2.70;;;2.13;;
12480;SDS011;6305;48.398;11.762;2023-08-31T07:30:02;2.53;;;2.33;;
12480;SDS011;6305;48.398;11.762;2023-08-31T07:32:30;3.22;;;2.45;;
12480;SDS011;6305;48.398;11.762;2023-08-31T07:34:58;3.60;;;2.25;;
12480;SDS011;6305;48.398;11.762;2023-08-31T07:37:25;3.60;;;2.40;;
12480;SDS011;6305;48.398;11.762;2023-08-31T07:39:53;4.15;;;2.17;;
12480;SDS011;6305;48.398;11.762;2023-08-31T07:42:21;9.63;;;3.92;;
12480;SDS011;6305;48.398;11.762;2023-08-31T07:44:48;6.65;;;2.90;;
12480;SDS011;6305;48.398;11.762;2023-08-31T07:47:15;3.88;;;2.50;;
12480;SDS011;6305;48.398;11.762;2023-08-31T07:49:42;4.13;;;2.67;;
12480;SDS011;6305;48.398;11.762;2023-08-31T07:52:10;5.38;;;2.47;;
12480;SDS011;6305;48.398;11.762;2023-08-31T07:54:36;3.28;;;2.25;;
12480;SDS011;6305;48.398;11.762;2023-08-31T07:57:03;4.00;;;2.47;;
12480;SDS011;6305;48.398;11.762;2023-08-31T07:59:32;3.10;;;2.05;;
12480;SDS011;6305;48.398;11.762;2023-08-31T08:01:59;3.55;;;2.58;;
12480;SDS011;6305;48.398;11.762;2023-08-31T08:04:26;3.63;;;2.55;;
12480;SDS011;6305;48.398;11.762;2023-08-31T08:06:54;3.72;;;2.40;;
12480;SDS011;6305;48.398;11.762;2023-08-31T08:09:21;2.63;;;2.00;;
12480;SDS011;6305;48.398;11.762;2023-08-31T08:11:48;4.28;;;2.38;;
12480;SDS011;6305;48.398;11.762;2023-08-31T08:14:16;3.15;;;2.10;;
12480;SDS011;6305;48.398;11.762;2023-08-31T08:16:44;3.42;;;2.10;;
12480;SDS011;6305;48.398;11.762;2023-08-31T08:19:11;2.78;;;2.20;;
12480;SDS011;6305;48.398;11.762;2023-08-31T08:21:38;3.20;;;2.20;;
12480;SDS011;6305;48.398;11.762;2023-08-31T08:24:05;3.65;;;2.25;;
12480;SDS011;6305;48.398;11.762;2023-08-31T08:26:32;2.85;;;2.08;;
12480;SDS011;6305;48.398;11.762;2023-08-31T08:28:59;3.45;;;1.88;;
12480;SDS011;6305;48.398;11.762;2023-08-31T08:31:26;3.35;;;2.08;;
12480;SDS011;6305;48.398;11.762;2023-08-31T08:33:54;3.50;;;1.95;;
12480;SDS011;6305;48.398;11.762;2023-08-31T08:36:21;3.55;;;1.98;;
12480;SDS011;6305;48.398;11.762;2023-08-31T08:38:48;2.55;;;2.05;;
12480;SDS011;6305;48.398;11.762;2023-08-31T08:41:15;3.70;;;2.13;;
12480;SDS011;6305;48.398;11.762;2023-08-31T08:43:44;2.30;;;2.10;;
12480;SDS011;6305;48.398;11.762;2023-08-31T08:46:13;5.43;;;2.10;;
12480;SDS011;6305;48.398;11.762;2023-08-31T08:48:40;3.25;;;2.00;;
12480;SDS011;6305;48.398;11.762;2023-08-31T08:51:10;4.72;;;2.15;;
12480;SDS011;6305;48.398;11.762;2023-08-31T08:53:38;3.20;;;2.40;;
12480;SDS011;6305;48.398;11.762;2023-08-31T08:56:08;2.78;;;2.13;;
12480;SDS011;6305;48.398;11.762;2023-08-31T08:58:35;6.82;;;2.25;;
12480;SDS011;6305;48.398;11.762;2023-08-31T09:01:02;3.80;;;2.13;;
12480;SDS011;6305;48.398;11.762;2023-08-31T09:03:34;3.33;;;2.13;;
12480;SDS011;6305;48.398;11.762;2023-08-31T09:06:01;3.33;;;2.30;;
12480;SDS011;6305;48.398;11.762;2023-08-31T09:08:30;3.05;;;1.92;;
12480;SDS011;6305;48.398;11.762;2023-08-31T09:10:57;2.97;;;2.53;;
12480;SDS011;6305;48.398;11.762;2023-08-31T09:13:25;2.88;;;2.05;;
12480;SDS011;6305;48.398;11.762;2023-08-31T09:15:54;3.63;;;2.55;;
12480;SDS011;6305;48.398;11.762;2023-08-31T09:18:23;4.32;;;2.10;;
12480;SDS011;6305;48.398;11.762;2023-08-31T09:20:51;3.30;;;2.30;;
12480;SDS011;6305;48.398;11.762;2023-08-31T09:23:18;3.97;;;2.15;;
12480;SDS011;6305;48.398;11.762;2023-08-31T09:25:47;3.28;;;2.30;;
12480;SDS011;6305;48.398;11.762;2023-08-31T09:28:15;4.70;;;2.40;;
12480;SDS011;6305;48.398;11.762;2023-08-31T09:30:44;2.40;;;2.15;;
12480;SDS011;6305;48.398;11.762;2023-08-31T09:33:13;3.78;;;1.98;;
12480;SDS011;6305;48.398;11.762;2023-08-31T09:35:46;2.28;;;2.08;;
12480;SDS011;6305;48.398;11.762;2023-08-31T09:38:15;3.13;;;2.50;;
12480;SDS011;6305;48.398;11.762;2023-08-31T09:40:42;3.20;;;2.05;;
12480;SDS011;6305;48.398;11.762;2023-08-31T09:43:11;2.38;;;1.70;;
12480;SDS011;6305;48.398;11.762;2023-08-31T09:45:38;4.20;;;2.13;;
12480;SDS011;6305;48.398;11.762;2023-08-31T09:48:05;4.40;;;2.20;;
12480;SDS011;6305;48.398;11.762;2023-08-31T09:50:33;4.40;;;1.90;;
12480;SDS011;6305;48.398;11.762;2023-08-31T09:53:01;3.65;;;1.85;;
12480;SDS011;6305;48.398;11.762;2023-08-31T09:55:30;4.40;;;2.33;;
12480;SDS011;6305;48.398;11.762;2023-08-31T09:57:58;4.53;;;2.00;;
12480;SDS011;6305;48.398;11.762;2023-08-31T10:00:29;4.03;;;1.90;;
12480;SDS011;6305;48.398;11.762;2023-08-31T10:02:58;2.45;;;1.85;;
12480;SDS011;6305;48.398;11.762;2023-08-31T10:05:27;4.65;;;2.20;;
12480;SDS011;6305;48.398;11.762;2023-08-31T10:07:55;3.88;;;2.08;;
12480;SDS011;6305;48.398;11.762;2023-08-31T10:10:23;2.90;;;1.70;;
12480;SDS011;6305;48.398;11.762;2023-08-31T10:12:50;3.97;;;2.00;;
12480;SDS011;6305;48.398;11.762;2023-08-31T10:15:18;4.30;;;1.90;;
12480;SDS011;6305;48.398;11.762;2023-08-31T10:17:46;3.65;;;2.20;;
12480;SDS011;6305;48.398;11.762;2023-08-31T10:20:14;3.63;;;2.00;;
12480;SDS011;6305;48.398;11.762;2023-08-31T10:22:42;4.45;;;1.95;;
12480;SDS011;6305;48.398;11.762;2023-08-31T10:25:10;1.88;;;1.70;;
12480;SDS011;6305;48.398;11.762;2023-08-31T10:27:38;3.63;;;1.83;;
12480;SDS011;6305;48.398;11.762;2023-08-31T10:30:12;5.57;;;1.90;;
12480;SDS011;6305;48.398;11.762;2023-08-31T10:32:40;3.58;;;1.58;;
12480;SDS011;6305;48.398;11.762;2023-08-31T10:35:09;3.35;;;1.63;;
12480;SDS011;6305;48.398;11.762;2023-08-31T10:37:36;3.63;;;1.75;;
12480;SDS011;6305;48.398;11.762;2023-08-31T10:40:08;6.05;;;1.77;;
12480;SDS011;6305;48.398;11.762;2023-08-31T10:42:43;4.78;;;1.90;;
12480;SDS011;6305;48.398;11.762;2023-08-31T10:45:12;5.60;;;1.80;;
12480;SDS011;6305;48.398;11.762;2023-08-31T10:47:40;4.40;;;2.05;;
12480;SDS011;6305;48.398;11.762;2023-08-31T10:50:19;2.25;;;1.75;;
12480;SDS011;6305;48.398;11.762;2023-08-31T10:52:48;5.07;;;2.25;;
12480;SDS011;6305;48.398;11.762;2023-08-31T10:55:15;3.45;;;1.73;;
12480;SDS011;6305;48.398;11.762;2023-08-31T10:57:42;4.30;;;2.15;;
12480;SDS011;6305;48.398;11.762;2023-08-31T11:00:11;3.55;;;1.80;;
12480;SDS011;6305;48.398;11.762;2023-08-31T11:02:41;3.30;;;1.95;;
12480;SDS011;6305;48.398;11.762;2023-08-31T11:05:09;2.92;;;1.70;;
12480;SDS011;6305;48.398;11.762;2023-08-31T11:07:38;3.95;;;2.10;;
12480;SDS011;6305;48.398;11.762;2023-08-31T11:10:10;2.10;;;1.77;;
12480;SDS011;6305;48.398;11.762;2023-08-31T11:12:38;2.95;;;1.70;;
12480;SDS011;6305;48.398;11.762;2023-08-31T11:15:06;4.20;;;2.20;;
12480;SDS011;6305;48.398;11.762;2023-08-31T11:17:34;2.67;;;1.75;;
12480;SDS011;6305;48.398;11.762;2023-08-31T11:20:01;4.03;;;1.95;;
12480;SDS011;6305;48.398;11.762;2023-08-31T11:22:31;2.38;;;1.65;;
12480;SDS011;6305;48.398;11.762;2023-08-31T11:25:00;3.33;;;1.67;;
12480;SDS011;6305;48.398;11.762;2023-08-31T11:27:28;3.33;;;1.55;;
12480;SDS011;6305;48.398;11.762;2023-08-31T11:29:55;3.03;;;1.70;;
12480;SDS011;6305;48.398;11.762;2023-08-31T11:32:22;2.40;;;1.58;;
12480;SDS011;6305;48.398;11.762;2023-08-31T11:34:50;4.82;;;1.70;;
12480;SDS011;6305;48.398;11.762;2023-08-31T11:37:17;2.50;;;1.73;;
12480;SDS011;6305;48.398;11.762;2023-08-31T11:39:49;5.30;;;1.88;;
12480;SDS011;6305;48.398;11.762;2023-08-31T11:42:19;3.53;;;1.73;;
12480;SDS011;6305;48.398;11.762;2023-08-31T11:44:48;3.08;;;1.73;;
12480;SDS011;6305;48.398;11.762;2023-08-31T11:47:16;3.88;;;2.13;;
12480;SDS011;6305;48.398;11.762;2023-08-31T11:49:43;3.30;;;2.10;;
12480;SDS011;6305;48.398;11.762;2023-08-31T11:52:12;2.35;;;1.60;;
12480;SDS011;6305;48.398;11.762;2023-08-31T11:54:41;2.35;;;1.70;;
12480;SDS011;6305;48.398;11.762;2023-08-31T11:57:09;3.25;;;1.67;;
12480;SDS011;6305;48.398;11.762;2023-08-31T11:59:38;4.30;;;1.80;;
12480;SDS011;6305;48.398;11.762;2023-08-31T12:02:06;3.05;;;1.95;;
12480;SDS011;6305;48.398;11.762;2023-08-31T12:04:33;3.50;;;1.88;;
12480;SDS011;6305;48.398;11.762;2023-08-31T12:07:08;3.13;;;1.65;;
12480;SDS011;6305;48.398;11.762;2023-08-31T12:09:35;2.53;;;1.73;;
12480;SDS011;6305;48.398;11.762;2023-08-31T12:12:02;4.53;;;1.90;;
12480;SDS011;6305;48.398;11.762;2023-08-31T12:14:30;6.18;;;1.95;;
12480;SDS011;6305;48.398;11.762;2023-08-31T12:17:02;2.92;;;1.60;;
12480;SDS011;6305;48.398;11.762;2023-08-31T12:19:30;3.97;;;1.77;;
12480;SDS011;6305;48.398;11.762;2023-08-31T12:21:58;3.40;;;1.85;;
12480;SDS011;6305;48.398;11.762;2023-08-31T12:24:25;4.20;;;1.60;;
12480;SDS011;6305;48.398;11.762;2023-08-31T12:26:52;2.92;;;1.73;;
12480;SDS011;6305;48.398;11.762;2023-08-31T12:29:20;3.78;;;1.98;;
12480;SDS011;6305;48.398;11.762;2023-08-31T12:31:48;3.20;;;1.83;;
12480;SDS011;6305;48.398;11.762;2023-08-31T12:34:17;3.33;;;1.83;;
12480;SDS011;6305;48.398;11.762;2023-08-31T12:36:44;2.50;;;1.70;;
12480;SDS011;6305;48.398;11.762;2023-08-31T12:39:11;3.25;;;1.90;;
12480;SDS011;6305;48.398;11.762;2023-08-31T12:41:38;2.20;;;1.80;;
12480;SDS011;6305;48.398;11.762;2023-08-31T12:44:05;4.32;;;1.70;;
12480;SDS011;6305;48.398;11.762;2023-08-31T12:46:32;3.15;;;1.60;;
12480;SDS011;6305;48.398;11.762;2023-08-31T12:49:00;1.95;;;1.40;;
12480;SDS011;6305;48.398;11.762;2023-08-31T12:51:29;4.40;;;1.80;;
12480;SDS011;6305;48.398;11.762;2023-08-31T12:53:56;4.03;;;2.30;;
12480;SDS011;6305;48.398;11.762;2023-08-31T12:56:23;3.63;;;2.00;;
12480;SDS011;6305;48.398;11.762;2023-08-31T12:58:50;3.40;;;1.80;;
12480;SDS011;6305;48.398;11.762;2023-08-31T13:01:19;3.50;;;2.00;;
12480;SDS011;6305;48.398;11.762;2023-08-31T13:03:46;4.32;;;1.77;;
12480;SDS011;6305;48.398;11.762;2023-08-31T13:06:14;2.88;;;1.70;;
12480;SDS011;6305;48.398;11.762;2023-08-31T13:08:43;3.92;;;2.03;;
12480;SDS011;6305;48.398;11.762;2023-08-31T13:11:11;4.72;;;2.28;;
12480;SDS011;6305;48.398;11.762;2023-08-31T13:13:38;8.05;;;2.20;;
12480;SDS011;6305;48.398;11.762;2023-08-31T13:16:05;4.60;;;1.70;;
12480;SDS011;6305;48.398;11.762;2023-08-31T13:18:32;4.65;;;1.88;;
12480;SDS011;6305;48.398;11.762;2023-08-31T13:20:59;5.85;;;1.98;;
12480;SDS011;6305;48.398;11.762;2023-08-31T13:23:26;2.83;;;2.00;;
12480;SDS011;6305;48.398;11.762;2023-08-31T13:25:55;3.83;;;2.20;;
12480;SDS011;6305;48.398;11.762;2023-08-31T13:28:22;4.32;;;1.80;;
12480;SDS011;6305;48.398;11.762;2023-08-31T13:30:49;3.53;;;2.15;;
12480;SDS011;6305;48.398;11.762;2023-08-31T13:33:17;3.95;;;1.92;;
12480;SDS011;6305;48.398;11.762;2023-08-31T13:35:45;4.18;;;2.00;;
12480;SDS011;6305;48.398;11.762;2023-08-31T13:38:12;3.58;;;1.70;;
12480;SDS011;6305;48.398;11.762;2023-08-31T13:40:39;3.95;;;1.70;;
12480;SDS011;6305;48.398;11.762;2023-08-31T13:43:07;4.03;;;1.63;;
12480;SDS011;6305;48.398;11.762;2023-08-31T13:45:34;5.25;;;2.03;;
12480;SDS011;6305;48.398;11.762;2023-08-31T13:48:01;3.58;;;1.80;;
12480;SDS011;6305;48.398;11.762;2023-08-31T13:50:29;2.70;;;1.80;;
12480;SDS011;6305;48.398;11.762;2023-08-31T13:52:56;3.65;;;1.98;;
12480;SDS011;6305;48.398;11.762;2023-08-31T13:55:23;4.20;;;1.80;;
12480;SDS011;6305;48.398;11.762;2023-08-31T13:57:51;5.85;;;2.67;;
12480;SDS011;6305;48.398;11.762;2023-08-31T14:00:20;2.60;;;1.92;;
12480;SDS011;6305;48.398;11.762;2023-08-31T14:02:47;2.38;;;1.73;;
12480;SDS011;6305;48.398;11.762;2023-08-31T14:05:14;4.22;;;1.88;;
12480;SDS011;6305;48.398;11.762;2023-08-31T14:07:41;3.83;;;1.92;;
12480;SDS011;6305;48.398;11.762;2023-08-31T14:10:08;4.28;;;2.17;;
12480;SDS011;6305;48.398;11.762;2023-08-31T14:12:35;3.65;;;1.77;;
12480;SDS011;6305;48.398;11.762;2023-08-31T14:15:04;1.83;;;1.33;;
12480;SDS011;6305;48.398;11.762;2023-08-31T14:17:33;2.50;;;1.90;;
12480;SDS011;6305;48.398;11.762;2023-08-31T14:20:00;2.55;;;1.65;;
12480;SDS011;6305;48.398;11.762;2023-08-31T14:22:31;3.40;;;1.60;;
12480;SDS011;6305;48.398;11.762;2023-08-31T14:24:58;3.60;;;1.90;;
12480;SDS011;6305;48.398;11.762;2023-08-31T14:27:25;4.82;;;1.70;;
12480;SDS011;6305;48.398;11.762;2023-08-31T14:29:55;4.32;;;1.92;;
12480;SDS011;6305;48.398;11.762;2023-08-31T14:32:23;3.55;;;1.90;;
12480;SDS011;6305;48.398;11.762;2023-08-31T14:34:53;3.90;;;1.80;;
12480;SDS011;6305;48.398;11.762;2023-08-31T14:37:20;3.50;;;1.75;;
12480;SDS011;6305;48.398;11.762;2023-08-31T14:39:48;2.50;;;1.65;;
12480;SDS011;6305;48.398;11.762;2023-08-31T14:42:15;3.78;;;1.77;;